sensor_id;sensor_type;location;lat;lon;timestamp;P1;durP1;ratioP1;P2;durP2;ratioP2
19691;SDS011;42748;50.016;19.890;2024-03-17T00:00:37;51.75;;;29.65;;
19691;SDS011;42748;50.016;19.890;2024-03-17T00:03:07;51.90;;;29.35;;
19691;SDS011;42748;50.016;19.890;2024-03-17T00:05:37;54.65;;;29.67;;
19691;SDS011;42748;50.016;19.890;2024-03-17T00:08:04;48.33;;;27.45;;
19691;SDS011;42748;50.016;19.890;2024-03-17T00:10:34;47.05;;;27.27;;
19691;SDS011;42748;50.016;19.890;2024-03-17T00:13:00;44.97;;;25.48;;
19691;SDS011;42748;50.016;19.890;2024-03-17T00:15:27;45.88;;;26.88;;
19691;SDS011;42748;50.016;19.890;2024-03-17T00:17:54;46.47;;;27.88;;
19691;SDS011;42748;50.016;19.890;2024-03-17T00:20:20;48.38;;;27.80;;
19691;SDS011;42748;50.016;19.890;2024-03-17T00:22:47;50.05;;;27.10;;
19691;SDS011;42748;50.016;19.890;2024-03-17T00:25:14;47.00;;;26.23;;
19691;SDS011;42748;50.016;19.890;2024-03-17T00:27:40;44.38;;;25.58;;
19691;SDS011;42748;50.016;19.890;2024-03-17T00:30:10;43.90;;;25.33;;
19691;SDS011;42748;50.016;19.890;2024-03-17T00:32:41;46.72;;;26.20;;
19691;SDS011;42748;50.016;19.890;2024-03-17T00:35:09;46.90;;;26.40;;
19691;SDS011;42748;50.016;19.890;2024-03-17T00:37:38;46.28;;;26.20;;
19691;SDS011;42748;50.016;19.890;2024-03-17T00:40:05;44.80;;;26.88;;
19691;SDS011;42748;50.016;19.890;2024-03-17T00:42:31;49.95;;;27.55;;
19691;SDS011;42748;50.016;19.890;2024-03-17T00:44:58;49.08;;;26.70;;
19691;SDS011;42748;50.016;19.890;2024-03-17T00:47:31;12.38;;;6.13;;
19691;SDS011;42748;50.016;19.890;2024-03-17T00:49:57;8.70;;;5.50;;
19691;SDS011;42748;50.016;19.890;2024-03-17T00:52:24;10.60;;;5.22;;
19691;SDS011;42748;50.016;19.890;2024-03-17T00:54:50;10.48;;;5.88;;
19691;SDS011;42748;50.016;19.890;2024-03-17T00:57:16;7.78;;;3.55;;
19691;SDS011;42748;50.016;19.890;2024-03-17T00:59:43;3.75;;;2.40;;
19691;SDS011;42748;50.016;19.890;2024-03-17T01:02:12;5.32;;;2.92;;
19691;SDS011;42748;50.016;19.890;2024-03-17T01:04:39;6.05;;;2.42;;
19691;SDS011;42748;50.016;19.890;2024-03-17T01:07:05;4.43;;;2.17;;
19691;SDS011;42748;50.016;19.890;2024-03-17T01:09:32;5.35;;;2.50;;
19691;SDS011;42748;50.016;19.890;2024-03-17T01:11:58;3.17;;;2.05;;
19691;SDS011;42748;50.016;19.890;2024-03-17T01:14:25;4.72;;;2.38;;
19691;SDS011;42748;50.016;19.890;2024-03-17T01:16:51;5.53;;;2.38;;
19691;SDS011;42748;50.016;19.890;2024-03-17T01:19:18;4.53;;;2.72;;
19691;SDS011;42748;50.016;19.890;2024-03-17T01:21:44;5.38;;;2.83;;
19691;SDS011;42748;50.016;19.890;2024-03-17T01:24:11;5.65;;;3.20;;
19691;SDS011;42748;50.016;19.890;2024-03-17T01:26:38;4.90;;;2.85;;
19691;SDS011;42748;50.016;19.890;2024-03-17T01:29:05;8.27;;;3.05;;
19691;SDS011;42748;50.016;19.890;2024-03-17T01:31:31;6.85;;;3.28;;
19691;SDS011;42748;50.016;19.890;2024-03-17T01:33:57;6.60;;;2.90;;
19691;SDS011;42748;50.016;19.890;2024-03-17T01:36:24;5.80;;;3.20;;
19691;SDS011;42748;50.016;19.890;2024-03-17T01:38:51;7.72;;;3.50;;
19691;SDS011;42748;50.016;19.890;2024-03-17T01:41:17;7.75;;;3.40;;
19691;SDS011;42748;50.016;19.890;2024-03-17T01:43:44;7.60;;;3.90;;
19691;SDS011;42748;50.016;19.890;2024-03-17T01:46:11;11.43;;;4.47;;
19691;SDS011;42748;50.016;19.890;2024-03-17T01:48:42;8.88;;;4.13;;
19691;SDS011;42748;50.016;19.890;2024-03-17T01:51:09;10.93;;;4.40;;
19691;SDS011;42748;50.016;19.890;2024-03-17T01:53:39;13.05;;;4.78;;
19691;SDS011;42748;50.016;19.890;2024-03-17T01:56:06;11.75;;;5.43;;
19691;SDS011;42748;50.016;19.890;2024-03-17T01:58:33;10.35;;;5.57;;
19691;SDS011;42748;50.016;19.890;2024-03-17T02:01:00;13.02;;;5.40;;
19691;SDS011;42748;50.016;19.890;2024-03-17T02:03:29;11.32;;;5.20;;
19691;SDS011;42748;50.016;19.890;2024-03-17T02:05:57;12.40;;;5.53;;
19691;SDS011;42748;50.016;19.890;2024-03-17T02:08:23;14.47;;;6.30;;
19691;SDS011;42748;50.016;19.890;2024-03-17T02:10:52;11.43;;;5.97;;
19691;SDS011;42748;50.016;19.890;2024-03-17T02:13:19;14.23;;;6.70;;
19691;SDS011;42748;50.016;19.890;2024-03-17T02:15:46;10.97;;;5.40;;
19691;SDS011;42748;50.016;19.890;2024-03-17T02:18:13;11.35;;;5.00;;
19691;SDS011;42748;50.016;19.890;2024-03-17T02:20:39;11.32;;;4.40;;
19691;SDS011;42748;50.016;19.890;2024-03-17T02:23:24;13.77;;;4.40;;
19691;SDS011;42748;50.016;19.890;2024-03-17T02:25:52;9.67;;;4.17;;
19691;SDS011;42748;50.016;19.890;2024-03-17T02:28:18;12.60;;;4.47;;
19691;SDS011;42748;50.016;19.890;2024-03-17T02:30:45;11.57;;;4.13;;
19691;SDS011;42748;50.016;19.890;2024-03-17T02:33:11;15.70;;;4.20;;
19691;SDS011;42748;50.016;19.890;2024-03-17T02:35:38;10.40;;;4.20;;
19691;SDS011;42748;50.016;19.890;2024-03-17T02:38:04;9.17;;;4.00;;
19691;SDS011;42748;50.016;19.890;2024-03-17T02:40:33;9.30;;;3.70;;
19691;SDS011;42748;50.016;19.890;2024-03-17T02:42:59;12.63;;;3.73;;
19691;SDS011;42748;50.016;19.890;2024-03-17T02:45:26;11.27;;;4.07;;
19691;SDS011;42748;50.016;19.890;2024-03-17T02:47:52;9.93;;;3.60;;
19691;SDS011;42748;50.016;19.890;2024-03-17T02:50:19;14.77;;;4.23;;
19691;SDS011;42748;50.016;19.890;2024-03-17T02:52:45;10.70;;;3.73;;
19691;SDS011;42748;50.016;19.890;2024-03-17T02:55:11;13.67;;;3.90;;
19691;SDS011;42748;50.016;19.890;2024-03-17T02:57:38;10.13;;;3.70;;
19691;SDS011;42748;50.016;19.890;2024-03-17T03:00:06;13.57;;;4.27;;
19691;SDS011;42748;50.016;19.890;2024-03-17T03:02:38;15.40;;;4.90;;
19691;SDS011;42748;50.016;19.890;2024-03-17T03:05:05;13.47;;;4.80;;
19691;SDS011;42748;50.016;19.890;2024-03-17T03:07:32;13.70;;;4.50;;
19691;SDS011;42748;50.016;19.890;2024-03-17T03:09:58;13.00;;;5.17;;
19691;SDS011;42748;50.016;19.890;2024-03-17T03:12:24;16.97;;;6.60;;
19691;SDS011;42748;50.016;19.890;2024-03-17T03:14:52;16.13;;;7.00;;
19691;SDS011;42748;50.016;19.890;2024-03-17T03:17:18;19.10;;;8.23;;
19691;SDS011;42748;50.016;19.890;2024-03-17T03:19:45;17.53;;;8.93;;
19691;SDS011;42748;50.016;19.890;2024-03-17T03:22:11;18.67;;;8.90;;
19691;SDS011;42748;50.016;19.890;2024-03-17T03:24:38;18.77;;;8.47;;
19691;SDS011;42748;50.016;19.890;2024-03-17T03:27:04;22.27;;;9.57;;
19691;SDS011;42748;50.016;19.890;2024-03-17T03:29:30;23.17;;;8.07;;
19691;SDS011;42748;50.016;19.890;2024-03-17T03:31:57;17.53;;;7.77;;
19691;SDS011;42748;50.016;19.890;2024-03-17T03:34:24;14.70;;;7.10;;
19691;SDS011;42748;50.016;19.890;2024-03-17T03:36:50;17.00;;;7.03;;
19691;SDS011;42748;50.016;19.890;2024-03-17T03:39:17;18.23;;;7.03;;
19691;SDS011;42748;50.016;19.890;2024-03-17T03:41:45;17.30;;;7.07;;
19691;SDS011;42748;50.016;19.890;2024-03-17T03:44:11;22.63;;;7.33;;
19691;SDS011;42748;50.016;19.890;2024-03-17T03:46:38;17.37;;;8.00;;
19691;SDS011;42748;50.016;19.890;2024-03-17T03:49:05;20.93;;;8.73;;
19691;SDS011;42748;50.016;19.890;2024-03-17T03:51:32;22.53;;;9.97;;
19691;SDS011;42748;50.016;19.890;2024-03-17T03:53:58;25.20;;;11.37;;
19691;SDS011;42748;50.016;19.890;2024-03-17T03:56:25;26.00;;;11.63;;
19691;SDS011;42748;50.016;19.890;2024-03-17T03:58:51;24.90;;;11.50;;
19691;SDS011;42748;50.016;19.890;2024-03-17T04:01:17;29.13;;;13.13;;
19691;SDS011;42748;50.016;19.890;2024-03-17T04:03:47;32.77;;;13.13;;
19691;SDS011;42748;50.016;19.890;2024-03-17T04:06:15;30.20;;;13.00;;
19691;SDS011;42748;50.016;19.890;2024-03-17T04:08:42;34.10;;;14.13;;
19691;SDS011;42748;50.016;19.890;2024-03-17T04:11:09;34.73;;;14.73;;
19691;SDS011;42748;50.016;19.890;2024-03-17T04:13:36;30.97;;;14.60;;
19691;SDS011;42748;50.016;19.890;2024-03-17T04:16:06;33.97;;;14.63;;
19691;SDS011;42748;50.016;19.890;2024-03-17T04:18:32;31.40;;;14.80;;
19691;SDS011;42748;50.016;19.890;2024-03-17T04:21:04;29.27;;;14.30;;
19691;SDS011;42748;50.016;19.890;2024-03-17T04:23:31;32.07;;;14.90;;
19691;SDS011;42748;50.016;19.890;2024-03-17T04:25:58;30.73;;;13.37;;
19691;SDS011;42748;50.016;19.890;2024-03-17T04:28:25;29.03;;;13.40;;
19691;SDS011;42748;50.016;19.890;2024-03-17T04:30:51;32.33;;;13.80;;
19691;SDS011;42748;50.016;19.890;2024-03-17T04:33:18;32.60;;;13.17;;
19691;SDS011;42748;50.016;19.890;2024-03-17T04:35:44;29.07;;;13.07;;
19691;SDS011;42748;50.016;19.890;2024-03-17T04:38:10;27.33;;;12.53;;
19691;SDS011;42748;50.016;19.890;2024-03-17T04:40:40;26.60;;;12.43;;
19691;SDS011;42748;50.016;19.890;2024-03-17T04:43:07;30.63;;;12.77;;
19691;SDS011;42748;50.016;19.890;2024-03-17T04:45:33;27.80;;;12.20;;
19691;SDS011;42748;50.016;19.890;2024-03-17T04:47:59;29.83;;;12.37;;
19691;SDS011;42748;50.016;19.890;2024-03-17T04:50:26;25.37;;;11.40;;
19691;SDS011;42748;50.016;19.890;2024-03-17T04:52:58;20.90;;;10.00;;
19691;SDS011;42748;50.016;19.890;2024-03-17T04:55:24;22.03;;;10.33;;
19691;SDS011;42748;50.016;19.890;2024-03-17T04:57:51;20.03;;;8.63;;
19691;SDS011;42748;50.016;19.890;2024-03-17T05:00:17;17.10;;;7.70;;
19691;SDS011;42748;50.016;19.890;2024-03-17T05:02:47;20.03;;;7.27;;
19691;SDS011;42748;50.016;19.890;2024-03-17T05:05:13;24.27;;;7.67;;
19691;SDS011;42748;50.016;19.890;2024-03-17T05:07:40;18.60;;;7.77;;
19691;SDS011;42748;50.016;19.890;2024-03-17T05:10:06;23.73;;;8.37;;
19691;SDS011;42748;50.016;19.890;2024-03-17T05:12:33;19.43;;;7.80;;
19691;SDS011;42748;50.016;19.890;2024-03-17T05:14:59;21.23;;;7.70;;
19691;SDS011;42748;50.016;19.890;2024-03-17T05:17:26;11.33;;;5.30;;
19691;SDS011;42748;50.016;19.890;2024-03-17T05:19:52;10.10;;;4.13;;
19691;SDS011;42748;50.016;19.890;2024-03-17T05:22:19;14.73;;;4.00;;
19691;SDS011;42748;50.016;19.890;2024-03-17T05:24:45;14.50;;;3.90;;
19691;SDS011;42748;50.016;19.890;2024-03-17T05:27:11;9.57;;;3.47;;
19691;SDS011;42748;50.016;19.890;2024-03-17T05:29:38;12.97;;;3.77;;
19691;SDS011;42748;50.016;19.890;2024-03-17T05:32:05;14.37;;;3.23;;
19691;SDS011;42748;50.016;19.890;2024-03-17T05:34:31;11.57;;;3.97;;
19691;SDS011;42748;50.016;19.890;2024-03-17T05:36:58;13.77;;;4.30;;
19691;SDS011;42748;50.016;19.890;2024-03-17T05:39:24;14.97;;;4.30;;
19691;SDS011;42748;50.016;19.890;2024-03-17T05:41:51;12.23;;;3.80;;
19691;SDS011;42748;50.016;19.890;2024-03-17T05:44:17;9.53;;;4.27;;
19691;SDS011;42748;50.016;19.890;2024-03-17T05:46:44;11.07;;;4.43;;
19691;SDS011;42748;50.016;19.890;2024-03-17T05:49:10;12.83;;;4.57;;
19691;SDS011;42748;50.016;19.890;2024-03-17T05:51:37;9.83;;;4.23;;
19691;SDS011;42748;50.016;19.890;2024-03-17T05:54:03;18.20;;;4.40;;
19691;SDS011;42748;50.016;19.890;2024-03-17T05:56:30;11.27;;;3.83;;
19691;SDS011;42748;50.016;19.890;2024-03-17T05:58:56;13.53;;;3.83;;
19691;SDS011;42748;50.016;19.890;2024-03-17T06:01:23;17.90;;;4.30;;
19691;SDS011;42748;50.016;19.890;2024-03-17T06:03:49;10.33;;;3.60;;
19691;SDS011;42748;50.016;19.890;2024-03-17T06:06:15;7.83;;;2.83;;
19691;SDS011;42748;50.016;19.890;2024-03-17T06:08:42;10.73;;;2.60;;
19691;SDS011;42748;50.016;19.890;2024-03-17T06:11:09;10.20;;;2.67;;
19691;SDS011;42748;50.016;19.890;2024-03-17T06:13:36;9.35;;;2.80;;
19691;SDS011;42748;50.016;19.890;2024-03-17T06:16:03;8.20;;;2.63;;
19691;SDS011;42748;50.016;19.890;2024-03-17T06:18:30;10.02;;;2.92;;
19691;SDS011;42748;50.016;19.890;2024-03-17T06:20:57;12.77;;;2.90;;
19691;SDS011;42748;50.016;19.890;2024-03-17T06:23:24;16.00;;;3.20;;
19691;SDS011;42748;50.016;19.890;2024-03-17T06:25:52;8.98;;;2.70;;
19691;SDS011;42748;50.016;19.890;2024-03-17T06:28:22;14.77;;;2.65;;
19691;SDS011;42748;50.016;19.890;2024-03-17T06:30:58;6.63;;;2.28;;
19691;SDS011;42748;50.016;19.890;2024-03-17T06:33:26;11.20;;;3.13;;
19691;SDS011;42748;50.016;19.890;2024-03-17T06:35:58;9.40;;;2.65;;
19691;SDS011;42748;50.016;19.890;2024-03-17T06:38:24;10.88;;;2.88;;
19691;SDS011;42748;50.016;19.890;2024-03-17T06:40:51;11.13;;;3.83;;
19691;SDS011;42748;50.016;19.890;2024-03-17T06:43:18;10.90;;;2.75;;
19691;SDS011;42748;50.016;19.890;2024-03-17T06:45:57;9.07;;;2.95;;
19691;SDS011;42748;50.016;19.890;2024-03-17T06:48:25;9.73;;;3.22;;
19691;SDS011;42748;50.016;19.890;2024-03-17T06:50:51;11.77;;;3.85;;
19691;SDS011;42748;50.016;19.890;2024-03-17T06:53:20;9.40;;;3.95;;
19691;SDS011;42748;50.016;19.890;2024-03-17T06:55:56;9.70;;;4.00;;
19691;SDS011;42748;50.016;19.890;2024-03-17T06:58:23;12.95;;;5.13;;
19691;SDS011;42748;50.016;19.890;2024-03-17T07:00:55;12.00;;;5.13;;
19691;SDS011;42748;50.016;19.890;2024-03-17T07:03:23;13.75;;;5.35;;
19691;SDS011;42748;50.016;19.890;2024-03-17T07:05:56;12.73;;;5.00;;
19691;SDS011;42748;50.016;19.890;2024-03-17T07:08:24;11.23;;;4.82;;
19691;SDS011;42748;50.016;19.890;2024-03-17T07:11:03;11.65;;;5.28;;
19691;SDS011;42748;50.016;19.890;2024-03-17T07:13:31;11.43;;;4.78;;
19691;SDS011;42748;50.016;19.890;2024-03-17T07:16:02;13.00;;;5.13;;
19691;SDS011;42748;50.016;19.890;2024-03-17T07:18:28;9.73;;;4.55;;
19691;SDS011;42748;50.016;19.890;2024-03-17T07:20:58;11.75;;;4.90;;
19691;SDS011;42748;50.016;19.890;2024-03-17T07:23:25;10.88;;;4.47;;
19691;SDS011;42748;50.016;19.890;2024-03-17T07:25:53;11.02;;;4.35;;
19691;SDS011;42748;50.016;19.890;2024-03-17T07:28:19;10.23;;;4.15;;
19691;SDS011;42748;50.016;19.890;2024-03-17T07:33:15;10.57;;;4.10;;
19691;SDS011;42748;50.016;19.890;2024-03-17T07:35:46;8.60;;;4.30;;
19691;SDS011;42748;50.016;19.890;2024-03-17T07:38:12;9.32;;;4.32;;
19691;SDS011;42748;50.016;19.890;2024-03-17T07:40:39;10.98;;;4.40;;
19691;SDS011;42748;50.016;19.890;2024-03-17T07:43:06;9.25;;;4.40;;
19691;SDS011;42748;50.016;19.890;2024-03-17T07:45:32;9.15;;;4.45;;
19691;SDS011;42748;50.016;19.890;2024-03-17T07:47:58;7.78;;;4.45;;
19691;SDS011;42748;50.016;19.890;2024-03-17T07:50:25;7.68;;;3.90;;
19691;SDS011;42748;50.016;19.890;2024-03-17T07:52:52;8.05;;;4.40;;
19691;SDS011;42748;50.016;19.890;2024-03-17T07:55:18;11.07;;;4.00;;
19691;SDS011;42748;50.016;19.890;2024-03-17T07:57:45;8.85;;;3.65;;
19691;SDS011;42748;50.016;19.890;2024-03-17T08:00:11;7.15;;;3.58;;
19691;SDS011;42748;50.016;19.890;2024-03-17T08:02:47;7.95;;;3.40;;
19691;SDS011;42748;50.016;19.890;2024-03-17T08:05:14;7.25;;;3.25;;
19691;SDS011;42748;50.016;19.890;2024-03-17T08:07:40;7.40;;;3.20;;
19691;SDS011;42748;50.016;19.890;2024-03-17T08:10:10;7.40;;;2.92;;
19691;SDS011;42748;50.016;19.890;2024-03-17T08:12:37;7.55;;;3.15;;
19691;SDS011;42748;50.016;19.890;2024-03-17T08:15:03;10.63;;;3.40;;
19691;SDS011;42748;50.016;19.890;2024-03-17T08:17:30;10.63;;;4.03;;
19691;SDS011;42748;50.016;19.890;2024-03-17T08:19:56;10.90;;;4.50;;
19691;SDS011;42748;50.016;19.890;2024-03-17T08:22:23;10.98;;;4.60;;
19691;SDS011;42748;50.016;19.890;2024-03-17T08:24:49;9.05;;;3.83;;
19691;SDS011;42748;50.016;19.890;2024-03-17T08:27:15;11.60;;;3.72;;
19691;SDS011;42748;50.016;19.890;2024-03-17T08:29:42;9.25;;;4.00;;
19691;SDS011;42748;50.016;19.890;2024-03-17T08:32:08;8.02;;;3.95;;
19691;SDS011;42748;50.016;19.890;2024-03-17T08:34:35;9.75;;;4.25;;
19691;SDS011;42748;50.016;19.890;2024-03-17T08:37:01;7.13;;;3.30;;
19691;SDS011;42748;50.016;19.890;2024-03-17T08:39:28;7.57;;;3.28;;
19691;SDS011;42748;50.016;19.890;2024-03-17T08:41:54;7.70;;;3.13;;
19691;SDS011;42748;50.016;19.890;2024-03-17T08:44:21;8.10;;;3.20;;
19691;SDS011;42748;50.016;19.890;2024-03-17T08:46:47;6.65;;;3.17;;
19691;SDS011;42748;50.016;19.890;2024-03-17T08:49:14;5.55;;;2.97;;
19691;SDS011;42748;50.016;19.890;2024-03-17T08:51:40;11.10;;;4.10;;
19691;SDS011;42748;50.016;19.890;2024-03-17T08:54:07;5.05;;;2.97;;
19691;SDS011;42748;50.016;19.890;2024-03-17T08:56:33;7.60;;;3.60;;
19691;SDS011;42748;50.016;19.890;2024-03-17T08:59:01;9.18;;;3.50;;
19691;SDS011;42748;50.016;19.890;2024-03-17T09:01:27;8.82;;;3.30;;
19691;SDS011;42748;50.016;19.890;2024-03-17T09:03:54;11.20;;;3.50;;
19691;SDS011;42748;50.016;19.890;2024-03-17T09:06:21;7.55;;;3.40;;
19691;SDS011;42748;50.016;19.890;2024-03-17T09:08:48;7.15;;;3.40;;
19691;SDS011;42748;50.016;19.890;2024-03-17T09:11:14;7.70;;;3.58;;
19691;SDS011;42748;50.016;19.890;2024-03-17T09:13:41;11.18;;;3.75;;
19691;SDS011;42748;50.016;19.890;2024-03-17T09:16:07;10.30;;;3.70;;
19691;SDS011;42748;50.016;19.890;2024-03-17T09:18:36;7.63;;;3.85;;
19691;SDS011;42748;50.016;19.890;2024-03-17T09:21:04;7.03;;;3.38;;
19691;SDS011;42748;50.016;19.890;2024-03-17T09:23:33;6.93;;;3.88;;
19691;SDS011;42748;50.016;19.890;2024-03-17T09:28:26;7.90;;;3.50;;
19691;SDS011;42748;50.016;19.890;2024-03-17T09:30:53;10.07;;;4.00;;
19691;SDS011;42748;50.016;19.890;2024-03-17T09:33:24;9.27;;;3.65;;
19691;SDS011;42748;50.016;19.890;2024-03-17T09:36:00;8.52;;;3.28;;
19691;SDS011;42748;50.016;19.890;2024-03-17T09:38:27;6.57;;;3.00;;
19691;SDS011;42748;50.016;19.890;2024-03-17T09:40:54;7.65;;;3.10;;
19691;SDS011;42748;50.016;19.890;2024-03-17T09:43:23;5.90;;;2.80;;
19691;SDS011;42748;50.016;19.890;2024-03-17T09:45:50;6.95;;;3.50;;
19691;SDS011;42748;50.016;19.890;2024-03-17T09:48:24;6.68;;;3.00;;
19691;SDS011;42748;50.016;19.890;2024-03-17T09:50:53;10.73;;;3.60;;
19691;SDS011;42748;50.016;19.890;2024-03-17T09:53:30;9.45;;;3.15;;
19691;SDS011;42748;50.016;19.890;2024-03-17T09:55:58;8.98;;;3.50;;
19691;SDS011;42748;50.016;19.890;2024-03-17T09:58:24;11.85;;;3.75;;
19691;SDS011;42748;50.016;19.890;2024-03-17T10:00:50;7.50;;;3.60;;
19691;SDS011;42748;50.016;19.890;2024-03-17T10:06:02;9.95;;;3.72;;
19691;SDS011;42748;50.016;19.890;2024-03-17T10:08:29;6.95;;;2.90;;
19691;SDS011;42748;50.016;19.890;2024-03-17T10:10:59;6.75;;;3.47;;
19691;SDS011;42748;50.016;19.890;2024-03-17T10:13:25;6.80;;;3.10;;
19691;SDS011;42748;50.016;19.890;2024-03-17T10:15:52;5.43;;;3.10;;
19691;SDS011;42748;50.016;19.890;2024-03-17T10:18:20;10.05;;;3.70;;
19691;SDS011;42748;50.016;19.890;2024-03-17T10:20:47;5.70;;;3.50;;
19691;SDS011;42748;50.016;19.890;2024-03-17T10:23:18;7.53;;;3.00;;
19691;SDS011;42748;50.016;19.890;2024-03-17T10:25:44;7.53;;;3.30;;
19691;SDS011;42748;50.016;19.890;2024-03-17T10:28:11;6.13;;;3.17;;
19691;SDS011;42748;50.016;19.890;2024-03-17T10:30:38;7.57;;;3.05;;
19691;SDS011;42748;50.016;19.890;2024-03-17T10:33:05;6.63;;;3.20;;
19691;SDS011;42748;50.016;19.890;2024-03-17T10:35:34;6.95;;;2.85;;
19691;SDS011;42748;50.016;19.890;2024-03-17T10:38:04;6.47;;;3.35;;
19691;SDS011;42748;50.016;19.890;2024-03-17T10:40:31;5.75;;;2.78;;
19691;SDS011;42748;50.016;19.890;2024-03-17T10:43:05;5.32;;;2.78;;
19691;SDS011;42748;50.016;19.890;2024-03-17T10:45:32;7.80;;;3.25;;
19691;SDS011;42748;50.016;19.890;2024-03-17T10:48:03;9.73;;;3.38;;
19691;SDS011;42748;50.016;19.890;2024-03-17T10:50:35;6.20;;;2.95;;
19691;SDS011;42748;50.016;19.890;2024-03-17T10:53:03;10.45;;;3.08;;
19691;SDS011;42748;50.016;19.890;2024-03-17T10:55:45;7.53;;;2.80;;
19691;SDS011;42748;50.016;19.890;2024-03-17T11:00:59;6.35;;;2.55;;
19691;SDS011;42748;50.016;19.890;2024-03-17T11:03:30;7.25;;;2.70;;
19691;SDS011;42748;50.016;19.890;2024-03-17T11:05:57;5.32;;;2.40;;
19691;SDS011;42748;50.016;19.890;2024-03-17T11:08:24;6.97;;;2.88;;
19691;SDS011;42748;50.016;19.890;2024-03-17T11:10:51;7.47;;;2.70;;
19691;SDS011;42748;50.016;19.890;2024-03-17T11:15:50;6.75;;;2.70;;
19691;SDS011;42748;50.016;19.890;2024-03-17T11:23:30;9.40;;;2.83;;
19691;SDS011;42748;50.016;19.890;2024-03-17T11:25:57;9.75;;;3.13;;
19691;SDS011;42748;50.016;19.890;2024-03-17T11:33:58;6.70;;;2.97;;
19691;SDS011;42748;50.016;19.890;2024-03-17T11:46:44;7.45;;;2.75;;
19691;SDS011;42748;50.016;19.890;2024-03-17T11:49:20;5.72;;;2.65;;
19691;SDS011;42748;50.016;19.890;2024-03-17T11:51:48;6.88;;;2.72;;
19691;SDS011;42748;50.016;19.890;2024-03-17T11:54:24;7.78;;;2.85;;
19691;SDS011;42748;50.016;19.890;2024-03-17T11:56:53;5.35;;;2.60;;
19691;SDS011;42748;50.016;19.890;2024-03-17T11:59:20;6.90;;;2.58;;
19691;SDS011;42748;50.016;19.890;2024-03-17T12:01:51;6.15;;;2.60;;
19691;SDS011;42748;50.016;19.890;2024-03-17T12:04:18;7.05;;;3.08;;
19691;SDS011;42748;50.016;19.890;2024-03-17T12:06:46;6.75;;;2.67;;
19691;SDS011;42748;50.016;19.890;2024-03-17T12:11:57;8.50;;;2.80;;
19691;SDS011;42748;50.016;19.890;2024-03-17T12:14:24;9.93;;;3.13;;
19691;SDS011;42748;50.016;19.890;2024-03-17T12:16:52;7.18;;;3.05;;
19691;SDS011;42748;50.016;19.890;2024-03-17T12:19:19;5.57;;;2.63;;
19691;SDS011;42748;50.016;19.890;2024-03-17T12:21:47;5.95;;;2.50;;
19691;SDS011;42748;50.016;19.890;2024-03-17T12:24:18;4.78;;;2.30;;
19691;SDS011;42748;50.016;19.890;2024-03-17T12:26:46;6.95;;;2.45;;
19691;SDS011;42748;50.016;19.890;2024-03-17T12:29:29;8.32;;;2.67;;
19691;SDS011;42748;50.016;19.890;2024-03-17T12:31:58;4.22;;;2.08;;
19691;SDS011;42748;50.016;19.890;2024-03-17T12:34:26;4.65;;;2.08;;
19691;SDS011;42748;50.016;19.890;2024-03-17T12:36:54;5.22;;;2.30;;
19691;SDS011;42748;50.016;19.890;2024-03-17T12:39:28;8.07;;;2.50;;
19691;SDS011;42748;50.016;19.890;2024-03-17T12:44:28;7.63;;;2.28;;
19691;SDS011;42748;50.016;19.890;2024-03-17T12:46:55;5.45;;;2.25;;
19691;SDS011;42748;50.016;19.890;2024-03-17T12:49:22;6.90;;;2.42;;
19691;SDS011;42748;50.016;19.890;2024-03-17T12:51:51;7.68;;;2.10;;
19691;SDS011;42748;50.016;19.890;2024-03-17T12:54:24;5.40;;;2.13;;
19691;SDS011;42748;50.016;19.890;2024-03-17T12:57:03;5.00;;;2.42;;
19691;SDS011;42748;50.016;19.890;2024-03-17T12:59:48;4.68;;;2.05;;
19691;SDS011;42748;50.016;19.890;2024-03-17T13:02:41;7.50;;;2.65;;
19691;SDS011;42748;50.016;19.890;2024-03-17T13:05:18;4.97;;;2.35;;
19691;SDS011;42748;50.016;19.890;2024-03-17T13:07:46;5.72;;;2.38;;
19691;SDS011;42748;50.016;19.890;2024-03-17T13:10:13;6.30;;;2.25;;
19691;SDS011;42748;50.016;19.890;2024-03-17T13:12:40;5.53;;;2.10;;
19691;SDS011;42748;50.016;19.890;2024-03-17T13:15:11;4.93;;;2.20;;
19691;SDS011;42748;50.016;19.890;2024-03-17T13:17:37;6.05;;;2.25;;
19691;SDS011;42748;50.016;19.890;2024-03-17T13:20:07;7.38;;;2.45;;
19691;SDS011;42748;50.016;19.890;2024-03-17T13:22:37;7.43;;;2.20;;
19691;SDS011;42748;50.016;19.890;2024-03-17T13:25:07;6.05;;;2.30;;
19691;SDS011;42748;50.016;19.890;2024-03-17T13:27:35;6.50;;;3.03;;
19691;SDS011;42748;50.016;19.890;2024-03-17T13:30:02;4.97;;;2.15;;
19691;SDS011;42748;50.016;19.890;2024-03-17T13:32:32;4.63;;;2.00;;
19691;SDS011;42748;50.016;19.890;2024-03-17T13:34:59;5.05;;;2.17;;
19691;SDS011;42748;50.016;19.890;2024-03-17T13:37:25;4.97;;;2.22;;
19691;SDS011;42748;50.016;19.890;2024-03-17T13:39:52;7.65;;;2.20;;
19691;SDS011;42748;50.016;19.890;2024-03-17T13:42:18;6.80;;;2.40;;
19691;SDS011;42748;50.016;19.890;2024-03-17T13:44:46;8.73;;;2.25;;
19691;SDS011;42748;50.016;19.890;2024-03-17T13:47:14;7.00;;;2.50;;
19691;SDS011;42748;50.016;19.890;2024-03-17T13:49:40;5.03;;;2.20;;
19691;SDS011;42748;50.016;19.890;2024-03-17T13:52:07;4.88;;;2.00;;
19691;SDS011;42748;50.016;19.890;2024-03-17T13:54:34;4.88;;;2.03;;
19691;SDS011;42748;50.016;19.890;2024-03-17T13:57:00;8.07;;;2.42;;
19691;SDS011;42748;50.016;19.890;2024-03-17T13:59:27;6.38;;;2.80;;
19691;SDS011;42748;50.016;19.890;2024-03-17T14:01:54;8.32;;;2.00;;
19691;SDS011;42748;50.016;19.890;2024-03-17T14:04:21;4.15;;;1.60;;
19691;SDS011;42748;50.016;19.890;2024-03-17T14:06:47;6.35;;;1.90;;
19691;SDS011;42748;50.016;19.890;2024-03-17T14:09:15;5.72;;;2.20;;
19691;SDS011;42748;50.016;19.890;2024-03-17T14:11:45;6.05;;;2.22;;
19691;SDS011;42748;50.016;19.890;2024-03-17T14:14:14;7.00;;;2.35;;
19691;SDS011;42748;50.016;19.890;2024-03-17T14:16:41;7.65;;;2.22;;
19691;SDS011;42748;50.016;19.890;2024-03-17T14:19:09;6.28;;;2.22;;
19691;SDS011;42748;50.016;19.890;2024-03-17T14:21:36;10.93;;;2.78;;
19691;SDS011;42748;50.016;19.890;2024-03-17T14:24:02;6.05;;;2.20;;
19691;SDS011;42748;50.016;19.890;2024-03-17T14:26:33;6.57;;;2.13;;
19691;SDS011;42748;50.016;19.890;2024-03-17T14:29:01;6.68;;;2.30;;
19691;SDS011;42748;50.016;19.890;2024-03-17T14:31:31;4.40;;;2.03;;
19691;SDS011;42748;50.016;19.890;2024-03-17T14:33:59;6.18;;;2.40;;
19691;SDS011;42748;50.016;19.890;2024-03-17T14:36:26;8.35;;;2.20;;
19691;SDS011;42748;50.016;19.890;2024-03-17T14:38:53;6.13;;;2.35;;
19691;SDS011;42748;50.016;19.890;2024-03-17T14:41:20;5.22;;;2.00;;
19691;SDS011;42748;50.016;19.890;2024-03-17T14:43:47;5.03;;;2.10;;
19691;SDS011;42748;50.016;19.890;2024-03-17T14:46:13;10.68;;;2.40;;
19691;SDS011;42748;50.016;19.890;2024-03-17T14:48:40;4.68;;;2.17;;
19691;SDS011;42748;50.016;19.890;2024-03-17T14:51:08;6.85;;;2.47;;
19691;SDS011;42748;50.016;19.890;2024-03-17T14:53:35;5.25;;;2.10;;
19691;SDS011;42748;50.016;19.890;2024-03-17T14:56:08;6.70;;;2.10;;
19691;SDS011;42748;50.016;19.890;2024-03-17T14:58:35;6.03;;;2.25;;
19691;SDS011;42748;50.016;19.890;2024-03-17T15:01:02;4.47;;;2.35;;
19691;SDS011;42748;50.016;19.890;2024-03-17T15:03:28;7.97;;;2.63;;
19691;SDS011;42748;50.016;19.890;2024-03-17T15:05:54;4.95;;;2.40;;
19691;SDS011;42748;50.016;19.890;2024-03-17T15:08:21;4.20;;;2.03;;